Time;durP1;ratioP1;P1;durP2;ratioP2;P2;SDS_P1;SDS_P2;PMS_P1;PMS_P2;Temp;Humidity;BMP_temperature;BMP_pressure;BME280_temperature;BME280_humidity;BME280_pressure;Samples;Min_cycle;Max_cycle;Signal;HPM_P1;HPM_P2
2022/04/24 00:01:24;;;;;;;2.40;0.88;;;14.30;99.90;;;;;;4926436;29;20032;-82
2022/04/24 00:04:03;;;;;;;4.90;1.00;;;14.20;99.90;;;;;;4934396;29;20027;-81
2022/04/24 00:06:31;;;;;;;2.25;0.88;;;14.20;99.90;;;;;;4933597;29;20475;-81
2022/04/24 00:08:57;;;;;;;4.28;1.05;;;14.10;99.90;;;;;;4933737;29;20475;-82
2022/04/24 00:11:23;;;;;;;2.08;1.00;;;14.10;99.90;;;;;;4933670;29;20083;-81
2022/04/24 00:13:53;;;;;;;6.22;0.90;;;14.10;99.90;;;;;;4932841;29;20036;-81
2022/04/24 00:16:25;;;;;;;3.42;1.00;;;14.10;99.90;;;;;;4933149;29;20087;-81
2022/04/24 00:18:51;;;;;;;4.35;1.20;;;14.00;99.90;;;;;;4933993;29;20455;-83
2022/04/24 00:21:16;;;;;;;1.45;0.90;;;14.00;99.90;;;;;;4933299;29;20046;-82
2022/04/24 00:23:43;;;;;;;4.30;1.15;;;13.90;99.90;;;;;;4933965;29;20783;-83
2022/04/24 00:26:09;;;;;;;3.60;1.10;;;14.00;99.90;;;;;;4916344;29;20091;-83
2022/04/24 00:28:35;;;;;;;2.40;1.00;;;13.90;99.90;;;;;;4933669;29;20503;-83
2022/04/24 00:31:00;;;;;;;2.55;1.08;;;13.90;99.90;;;;;;4916288;29;20032;-83
2022/04/24 00:33:26;;;;;;;4.53;1.20;;;13.90;99.90;;;;;;4933840;29;20056;-82
2022/04/24 00:35:56;;;;;;;4.78;1.00;;;13.90;99.90;;;;;;4933264;29;20032;-81
2022/04/24 00:38:22;;;;;;;6.60;1.35;;;14.00;99.90;;;;;;4933976;29;20403;-82
2022/04/24 00:40:53;;;;;;;5.18;1.30;;;14.00;99.90;;;;;;4915743;29;20036;-83
2022/04/24 00:43:22;;;;;;;3.92;1.08;;;14.10;99.90;;;;;;4931940;29;20082;-83
2022/04/24 00:45:49;;;;;;;9.60;1.10;;;14.10;99.90;;;;;;4932678;29;20066;-82
2022/04/24 00:48:18;;;;;;;4.32;0.80;;;14.10;99.90;;;;;;4933643;29;20036;-83
2022/04/24 00:50:43;;;;;;;2.53;1.17;;;14.20;99.90;;;;;;4933167;29;20028;-83
2022/04/24 00:53:13;;;;;;;3.50;0.85;;;14.20;99.90;;;;;;4932818;29;20087;-82
2022/04/24 00:55:42;;;;;;;4.30;1.48;;;14.20;99.90;;;;;;4933096;29;20091;-82
2022/04/24 00:58:07;;;;;;;3.42;1.10;;;14.30;99.90;;;;;;4933404;29;20567;-82
2022/04/24 01:00:38;;;;;;;5.15;1.05;;;14.30;99.90;;;;;;4916140;29;20066;-82
2022/04/24 01:03:15;;;;;;;4.38;1.23;;;14.30;99.90;;;;;;4933307;29;20110;-82
2022/04/24 01:05:41;;;;;;;7.45;1.58;;;14.30;99.90;;;;;;4933075;29;20087;-82
2022/04/24 01:08:19;;;;;;;6.28;1.33;;;14.30;99.90;;;;;;4916129;29;20035;-82
2022/04/24 01:10:48;;;;;;;3.63;1.27;;;14.30;99.90;;;;;;4911762;29;20035;-82
2022/04/24 01:13:22;;;;;;;6.78;1.48;;;14.20;99.90;;;;;;4936377;29;20406;-82
2022/04/24 01:16:19;;;;;;;5.10;1.20;;;14.30;99.90;;;;;;4936569;29;20090;-81
2022/04/24 01:19:30;;;;;;;6.25;1.83;;;14.30;99.90;;;;;;4936603;29;20130;-81
2022/04/24 01:21:57;;;;;;;3.97;1.38;;;14.30;99.90;;;;;;4899952;29;20443;-81
2022/04/24 01:25:30;;;;;;;3.40;1.10;;;14.40;99.90;;;;;;4936918;29;20376;-81
2022/04/24 01:27:59;;;;;;;;;;;14.40;99.90;;;;;;4844586;29;20037;-82
2022/04/24 01:30:55;;;;;;;4.07;1.27;;;14.50;99.90;;;;;;4933484;29;20495;-83
2022/04/24 01:33:31;;;;;;;2.92;1.50;;;14.50;99.90;;;;;;4935263;29;20042;-82
2022/04/24 01:36:33;;;;;;;;;;;;;;;;;;;;;
2022/04/24 01:39:40;;;;;;;4.88;1.40;;;14.40;99.90;;;;;;4931013;29;20058;-81
2022/04/24 01:42:37;;;;;;;4.05;1.40;;;14.40;99.90;;;;;;4896147;29;20040;-81
2022/04/24 01:46:08;;;;;;;6.43;1.38;;;14.40;99.90;;;;;;4928942;29;20122;-81
2022/04/24 01:48:14;;;;;;;5.03;1.60;;;14.30;99.90;;;;;;4927414;29;20032;-81
2022/04/24 01:51:14;;;;;;;5.22;1.65;;;14.30;99.90;;;;;;4935961;29;20079;-81
2022/04/24 01:53:40;;;;;;;4.50;1.45;;;14.30;99.90;;;;;;4932971;29;20491;-81
2022/04/24 01:56:21;;;;;;;3.28;1.25;;;14.30;99.90;;;;;;4935782;29;20048;-81
2022/04/24 01:59:02;;;;;;;4.63;1.42;;;14.30;99.90;;;;;;4936149;29;20071;-81
2022/04/24 02:01:38;;;;;;;4.47;1.42;;;14.30;99.90;;;;;;4935160;29;20123;-82
2022/04/24 02:04:41;;;;;;;6.07;1.65;;;14.30;99.90;;;;;;4936243;29;20106;-81
2022/04/24 02:07:18;;;;;;;5.65;1.48;;;14.30;99.90;;;;;;4905194;29;20047;-82
2022/04/24 02:09:56;;;;;;;10.00;1.98;;;14.20;99.90;;;;;;4918381;29;20043;-81
2022/04/24 02:12:57;;;;;;;5.10;1.50;;;14.30;99.90;;;;;;4933448;29;20126;-81
2022/04/24 02:15:33;;;;;;;7.45;1.50;;;14.30;99.90;;;;;;4919342;29;20050;-82
2022/04/24 02:18:26;;;;;;;2.88;1.35;;;14.30;99.90;;;;;;4918255;29;20031;-81
2022/04/24 02:21:30;;;;;;;4.55;1.50;;;14.40;99.90;;;;;;4918817;29;20561;-82
2022/04/24 02:24:09;;;;;;;;;;;;;;;;;;;;;
2022/04/24 02:26:46;;;;;;;5.03;1.85;;;14.40;99.90;;;;;;4934968;29;20035;-81
2022/04/24 02:29:27;;;;;;;4.90;1.77;;;14.40;99.90;;;;;;4934771;29;20023;-81
2022/04/24 02:31:57;;;;;;;7.55;3.08;;;14.40;99.90;;;;;;4934825;29;20494;-81
2022/04/24 02:34:32;;;;;;;9.32;1.98;;;14.40;99.90;;;;;;4935776;29;20391;-81
2022/04/24 02:37:25;;;;;;;5.60;1.80;;;14.40;99.90;;;;;;4934814;29;20042;-81
2022/04/24 02:40:00;;;;;;;5.18;1.90;;;14.40;99.90;;;;;;4934944;29;20036;-81
2022/04/24 02:42:26;;;;;;;6.72;1.83;;;14.40;99.90;;;;;;4916356;29;20138;-81
2022/04/24 02:45:06;;;;;;;10.63;1.70;;;14.40;99.90;;;;;;4935070;29;20024;-81
2022/04/24 02:47:44;;;;;;;6.65;2.15;;;14.40;99.90;;;;;;4934147;29;20091;-81
2022/04/24 02:50:18;;;;;;;6.88;2.17;;;14.50;99.90;;;;;;4931104;29;20031;-81
2022/04/24 02:52:56;;;;;;;5.93;1.85;;;14.40;99.90;;;;;;4932691;29;20050;-81
2022/04/24 02:55:26;;;;;;;7.15;2.35;;;14.40;99.90;;;;;;4917957;29;20036;-81
2022/04/24 02:57:56;;;;;;;6.78;2.10;;;14.40;99.90;;;;;;4917038;29;20467;-81
2022/04/24 03:00:27;;;;;;;7.22;1.90;;;14.40;99.90;;;;;;4934911;29;20041;-81
2022/04/24 03:03:02;;;;;;;6.85;1.98;;;14.30;99.90;;;;;;4934186;29;20032;-81
2022/04/24 03:05:31;;;;;;;8.27;2.17;;;14.40;99.90;;;;;;4917854;29;20063;-80
2022/04/24 03:08:00;;;;;;;8.15;2.17;;;14.30;99.90;;;;;;4934558;29;20066;-81
2022/04/24 03:10:46;;;;;;;7.97;1.70;;;14.40;99.90;;;;;;4911992;29;20522;-81
2022/04/24 03:13:52;;;;;;;;;;;;;;;;;;;;;
2022/04/24 03:23:37;;;;;;;9.25;1.95;;;14.40;99.90;;;;;;4853333;29;20111;-81
2022/04/24 03:36:27;;;;;;;8.68;2.17;;;14.50;99.90;;;;;;4830862;29;20086;-80
2022/04/24 03:39:47;;;;;;;;;;;;;;;;;;;;;
2022/04/24 03:42:54;;;;;;;12.27;2.75;;;14.60;99.90;;;;;;4874186;29;20035;-81
2022/04/24 03:45:41;;;;;;;13.77;2.45;;;14.60;99.90;;;;;;4871984;29;20049;-81
2022/04/24 03:48:38;;;;;;;14.10;2.83;;;14.50;99.90;;;;;;4917258;29;20043;-81
2022/04/24 03:51:22;;;;;;;12.60;2.78;;;14.50;99.90;;;;;;4916335;29;20034;-80
2022/04/24 03:57:13;;;;;;;10.27;2.42;;;14.50;99.90;;;;;;4804888;29;20038;-81
2022/04/24 03:59:39;;;;;;;11.07;2.53;;;14.50;99.90;;;;;;4933094;29;20103;-82
2022/04/24 04:02:06;;;;;;;10.70;2.35;;;14.50;99.90;;;;;;4933249;29;20028;-80
2022/04/24 04:04:35;;;;;;;11.15;2.60;;;14.60;99.90;;;;;;4934068;29;20122;-79
2022/04/24 04:07:07;;;;;;;19.92;3.38;;;14.60;99.90;;;;;;4933040;29;20155;-79
2022/04/24 04:09:32;;;;;;;10.93;2.58;;;14.60;99.90;;;;;;4934269;29;20023;-79
2022/04/24 04:11:58;;;;;;;18.85;3.40;;;14.50;99.90;;;;;;4933405;29;20035;-81
2022/04/24 04:14:35;;;;;;;30.67;4.15;;;14.00;99.90;;;;;;4933721;29;20027;-83
2022/04/24 04:17:01;;;;;;;51.10;6.28;;;12.30;99.90;;;;;;4933148;29;20035;-81
2022/04/24 04:19:27;;;;;;;59.08;6.63;;;11.10;99.90;;;;;;4934020;29;20035;-82
2022/04/24 04:21:52;;;;;;;63.58;6.03;;;10.70;99.90;;;;;;4933307;29;20039;-80
2022/04/24 04:24:18;;;;;;;55.00;5.88;;;10.60;99.90;;;;;;4933818;29;20536;-79
2022/04/24 04:26:44;;;;;;;45.63;5.05;;;10.50;99.90;;;;;;4916171;29;20028;-79
2022/04/24 04:29:19;;;;;;;50.22;5.57;;;10.40;99.90;;;;;;4933867;29;20147;-80
2022/04/24 04:31:47;;;;;;;54.33;6.57;;;10.30;99.90;;;;;;4915952;29;20035;-80
2022/04/24 04:34:13;;;;;;;35.30;4.85;;;10.30;99.90;;;;;;4916458;29;20054;-79
2022/04/24 04:36:39;;;;;;;38.53;5.43;;;10.40;99.90;;;;;;4933255;29;20399;-80
2022/04/24 04:39:05;;;;;;;41.13;5.43;;;10.50;99.90;;;;;;4932737;29;20032;-79
2022/04/24 04:41:34;;;;;;;32.08;5.45;;;10.70;99.90;;;;;;4933061;29;20095;-80
2022/04/24 04:44:00;;;;;;;34.70;6.35;;;10.80;99.90;;;;;;4916657;29;20035;-80
2022/04/24 04:46:26;;;;;;;39.72;5.20;;;10.90;99.90;;;;;;4933841;29;20542;-80
2022/04/24 04:48:52;;;;;;;;;;;11.10;99.90;;;;;;4938112;29;20134;-80
2022/04/24 04:51:17;;;;;;;;;;;11.10;99.90;;;;;;4937477;29;20451;-80
2022/04/24 04:53:43;;;;;;;;;;;11.20;99.90;;;;;;4937442;29;20638;-80
2022/04/24 04:56:08;;;;;;;;;;;11.20;99.90;;;;;;4937299;29;20364;-80
2022/04/24 04:58:34;;;;;;;;;;;11.20;99.90;;;;;;4937500;29;20074;-79
2022/04/24 05:01:00;;;;;;;;;;;11.20;99.90;;;;;;4937122;29;19996;-80
2022/04/24 05:03:26;;;;;;;;;;;11.20;99.90;;;;;;4937693;29;19983;-80
2022/04/24 05:05:52;;;;;;;;;;;11.20;99.90;;;;;;4920122;29;19996;-80
2022/04/24 05:08:17;;;;;;;;;;;11.20;99.90;;;;;;4937758;29;20015;-80
2022/04/24 05:10:43;;;;;;;;;;;11.20;99.90;;;;;;4936876;29;20027;-79
2022/04/24 05:13:09;;;;;;;;;;;11.30;99.90;;;;;;4936800;29;20126;-80
2022/04/24 05:15:34;;;;;;;;;;;11.20;99.90;;;;;;4937342;29;19991;-79
2022/04/24 05:18:00;;;;;;;;;;;11.20;99.90;;;;;;4937089;29;20098;-80
2022/04/24 05:20:25;;;;;;;;;;;11.30;99.90;;;;;;4937276;29;20491;-80
2022/04/24 05:22:51;;;;;;;;;;;11.40;99.90;;;;;;4922933;29;20382;-79
2022/04/24 05:25:16;;;;;;;;;;;11.40;99.90;;;;;;4937405;29;20000;-80
2022/04/24 05:27:42;;;;;;;;;;;11.30;99.90;;;;;;4936880;29;20034;-80
2022/04/24 05:30:08;;;;;;;;;;;11.30;99.90;;;;;;4937074;29;20368;-80
2022/04/24 05:32:47;;;;;;;;;;;11.20;99.90;;;;;;4936967;29;20042;-79
2022/04/24 05:35:12;;;;;;;;;;;11.20;99.90;;;;;;4922231;29;20103;-80
2022/04/24 05:37:39;;;;;;;;;;;11.10;99.90;;;;;;4936537;29;20474;-80
2022/04/24 05:40:05;;;;;;;;;;;11.20;99.90;;;;;;4937006;29;19996;-82
2022/04/24 05:42:30;;;;;;;;;;;11.20;99.90;;;;;;4936605;29;19992;-80
2022/04/24 05:44:59;;;;;;;;;;;11.20;99.90;;;;;;4936692;29;20498;-80
2022/04/24 05:47:25;;;;;;;;;;;11.20;99.90;;;;;;4935077;29;19992;-81
2022/04/24 05:49:51;;;;;;;;;;;11.30;99.90;;;;;;4936533;29;19987;-81
2022/04/24 05:52:17;;;;;;;;;;;11.30;99.90;;;;;;4936514;29;20091;-80
2022/04/24 05:54:42;;;;;;;;;;;11.20;99.90;;;;;;4936922;29;19984;-82
2022/04/24 05:57:08;;;;;;;;;;;11.30;99.90;;;;;;4936294;28;20071;-81
2022/04/24 05:59:34;;;;;;;;;;;11.30;99.90;;;;;;4936439;29;20012;-81
2022/04/24 06:02:02;;;;;;;;;;;11.20;99.90;;;;;;4935870;29;20002;-81
2022/04/24 06:04:27;;;;;;;;;;;11.20;99.90;;;;;;4936869;29;19995;-81
2022/04/24 06:06:53;;;;;;;;;;;11.30;99.90;;;;;;4935702;29;19992;-81
2022/04/24 06:09:21;;;;;;;;;;;11.30;99.90;;;;;;4936318;29;19988;-83
2022/04/24 06:11:47;;;;;;;;;;;11.20;99.90;;;;;;4935772;29;20119;-81
2022/04/24 06:14:14;;;;;;;;;;;11.30;99.90;;;;;;4935248;29;20463;-82
2022/04/24 06:16:39;;;;;;;;;;;11.40;99.90;;;;;;4935787;29;20025;-81
2022/04/24 06:19:05;;;;;;;;;;;11.40;99.90;;;;;;4936178;29;20055;-81
2022/04/24 06:21:30;;;;;;;;;;;11.20;99.90;;;;;;4935722;29;20097;-81
2022/04/24 06:23:56;;;;;;;;;;;11.30;99.90;;;;;;4936105;29;20031;-81
2022/04/24 06:26:21;;;;;;;;;;;11.40;99.90;;;;;;4935517;29;19992;-81
2022/04/24 06:28:47;;;;;;;;;;;11.30;99.90;;;;;;4918710;29;19991;-81
2022/04/24 06:31:13;;;;;;;;;;;11.20;99.90;;;;;;4935377;29;20047;-81
2022/04/24 06:33:41;;;;;;;;;;;11.10;99.90;;;;;;4936243;29;19996;-81
2022/04/24 06:36:07;;;;;;;;;;;11.00;99.90;;;;;;4935421;29;19987;-81
2022/04/24 06:38:32;;;;;;;;;;;11.00;99.90;;;;;;4935790;29;20094;-81
2022/04/24 06:40:58;;;;;;;;;;;10.90;99.90;;;;;;4935350;29;19991;-81
2022/04/24 06:43:23;;;;;;;;;;;10.90;99.90;;;;;;4935708;29;20559;-81
2022/04/24 06:45:49;;;;;;;;;;;10.80;99.90;;;;;;4935436;29;19991;-81
2022/04/24 06:48:16;;;;;;;;;;;10.80;99.90;;;;;;4936109;29;20075;-90
2022/04/24 06:50:43;;;;;;;;;;;10.90;99.90;;;;;;4936579;29;19998;-85
2022/04/24 06:53:18;;;;;;;;;;;11.00;99.90;;;;;;4918613;29;19991;-84
2022/04/24 06:55:45;;;;;;;;;;;11.00;99.90;;;;;;4918227;29;19998;-86
2022/04/24 06:58:12;;;;;;;;;;;11.20;99.90;;;;;;4934656;29;20378;-84
2022/04/24 07:00:39;;;;;;;;;;;11.20;99.90;;;;;;4934789;29;19988;-81
2022/04/24 07:03:24;;;;;;;;;;;11.30;99.90;;;;;;4935597;29;20455;-79
2022/04/24 07:05:53;;;;;;;;;;;11.40;99.90;;;;;;4934985;29;19999;-80
2022/04/24 07:08:19;;;;;;;;;;;11.50;99.90;;;;;;4918371;29;20451;-80
2022/04/24 07:10:45;;;;;;;;;;;11.70;99.90;;;;;;4934304;29;20031;-82
2022/04/24 07:13:11;;;;;;;;;;;11.80;99.90;;;;;;4934921;29;20085;-80
2022/04/24 07:15:38;;;;;;;;;;;12.00;99.90;;;;;;4917472;29;19988;-82
2022/04/24 07:18:05;;;;;;;;;;;12.10;99.90;;;;;;4934392;29;20063;-82
2022/04/24 07:20:30;;;;;;;;;;;12.20;99.90;;;;;;4934403;29;19992;-81
2022/04/24 07:22:58;;;;;;;;;;;12.20;99.90;;;;;;4934595;29;20007;-82
2022/04/24 07:25:24;;;;;;;;;;;12.40;99.90;;;;;;4934960;29;20023;-82
2022/04/24 07:27:50;;;;;;;;;;;12.50;99.90;;;;;;4931773;29;20132;-82
2022/04/24 07:30:16;;;;;;;;;;;12.70;99.90;;;;;;4931188;29;20450;-81
2022/04/24 07:32:43;;;;;;;;;;;12.80;99.90;;;;;;4934647;29;20002;-81
2022/04/24 07:35:10;;;;;;;;;;;12.80;99.90;;;;;;4931821;29;19988;-81
2022/04/24 07:37:36;;;;;;;;;;;12.60;99.90;;;;;;4916317;29;19988;-81
2022/04/24 07:40:02;;;;;;;;;;;12.70;99.90;;;;;;4934722;29;19999;-81
2022/04/24 07:57:40;;;;;;;5.25;1.35;;;12.50;99.90;;;;;;5099284;27;20504;-82
2022/04/24 08:00:09;;;;;;;4.57;1.10;;;12.50;99.90;;;;;;5065566;28;20036;-84
2022/04/24 08:02:53;;;;;;;2.15;0.95;;;12.70;99.90;;;;;;5057130;28;20376;-84
2022/04/24 08:05:20;;;;;;;4.80;1.17;;;12.80;99.90;;;;;;5067317;28;20082;-84
2022/04/24 08:07:46;;;;;;;3.75;1.10;;;13.10;99.90;;;;;;5055648;28;20475;-81
2022/04/24 08:10:12;;;;;;;3.53;0.85;;;13.50;99.90;;;;;;5062728;28;20016;-85
2022/04/24 08:12:37;;;;;;;5.97;1.30;;;13.30;99.90;;;;;;5057778;28;20032;-81
2022/04/24 08:15:03;;;;;;;3.88;1.30;;;13.20;99.90;;;;;;5067603;28;20048;-82
2022/04/24 08:17:29;;;;;;;6.57;1.20;;;13.20;99.90;;;;;;5057493;28;20021;-83
2022/04/24 08:19:55;;;;;;;5.72;1.58;;;13.20;99.90;;;;;;5061675;28;20055;-82
2022/04/24 08:22:21;;;;;;;3.75;1.50;;;13.30;99.90;;;;;;5057471;28;20053;-80
2022/04/24 08:24:47;;;;;;;4.72;2.25;;;13.40;99.90;;;;;;5058450;28;20025;-80
2022/04/24 08:27:13;;;;;;;6.70;1.50;;;13.70;99.90;;;;;;5059956;28;20376;-85
2022/04/24 08:29:38;;;;;;;3.42;1.20;;;13.70;99.90;;;;;;5054623;28;20040;-83
2022/04/24 08:32:04;;;;;;;7.03;1.20;;;13.80;99.90;;;;;;5058848;28;20063;-83
2022/04/24 08:34:30;;;;;;;9.63;1.70;;;13.70;99.90;;;;;;5056444;28;20021;-83
2022/04/24 08:36:56;;;;;;;4.22;1.55;;;13.70;99.90;;;;;;5055468;28;20031;-79
2022/04/24 08:39:21;;;;;;;6.40;1.55;;;13.90;99.90;;;;;;5062497;28;20029;-78
2022/04/24 08:41:47;;;;;;;11.73;2.10;;;14.00;99.90;;;;;;5069401;28;20025;-82
2022/04/24 08:44:13;;;;;;;5.53;1.50;;;14.10;99.90;;;;;;5066676;28;20039;-80
2022/04/24 08:46:39;;;;;;;5.60;1.30;;;14.10;99.90;;;;;;5055608;28;20495;-81
2022/04/24 08:49:09;;;;;;;6.88;1.73;;;14.20;99.90;;;;;;5067216;28;20032;-80
2022/04/24 08:51:36;;;;;;;6.13;1.08;;;14.30;99.90;;;;;;5065143;28;20085;-79
2022/04/24 08:54:02;;;;;;;6.85;1.27;;;14.50;99.90;;;;;;5050367;28;20024;-80
2022/04/24 08:56:28;;;;;;;4.88;1.25;;;14.80;99.90;;;;;;5045468;28;20033;-80
2022/04/24 08:58:54;;;;;;;7.47;1.23;;;14.70;99.90;;;;;;5033882;28;20032;-79
2022/04/24 09:01:20;;;;;;;2.72;1.13;;;14.60;99.90;;;;;;5032878;28;20025;-79
2022/04/24 09:03:46;;;;;;;2.53;1.17;;;14.60;99.90;;;;;;5034241;28;20558;-79
2022/04/24 09:06:24;;;;;;;2.47;1.02;;;14.70;99.90;;;;;;5033195;28;20041;-82
2022/04/24 09:08:50;;;;;;;10.70;1.40;;;14.60;99.90;;;;;;5033769;28;20032;-80
2022/04/24 09:11:19;;;;;;;9.95;1.20;;;14.60;99.90;;;;;;5031611;28;20026;-80
2022/04/24 09:16:36;;;;;;;6.75;1.33;;;14.80;99.90;;;;;;5030541;28;20064;-81
2022/04/24 09:19:04;;;;;;;5.75;1.17;;;14.80;99.90;;;;;;5030134;28;20048;-79
2022/04/24 09:21:30;;;;;;;3.10;0.82;;;14.90;99.90;;;;;;5030097;28;20025;-83
2022/04/24 09:24:00;;;;;;;3.15;1.10;;;15.00;99.90;;;;;;5030022;28;20025;-84
2022/04/24 09:26:26;;;;;;;5.07;1.23;;;14.90;99.90;;;;;;5032576;28;20415;-84
2022/04/24 09:28:52;;;;;;;5.45;1.10;;;15.20;99.90;;;;;;5033189;28;20025;-83
2022/04/24 09:31:20;;;;;;;2.95;0.93;;;15.50;99.90;;;;;;5029945;28;20038;-82
2022/04/24 09:33:46;;;;;;;11.05;1.70;;;15.50;99.90;;;;;;5029538;28;20040;-83
2022/04/24 09:36:13;;;;;;;2.92;1.02;;;15.40;99.90;;;;;;5029644;28;20195;-83
2022/04/24 09:38:44;;;;;;;3.92;1.23;;;15.50;99.90;;;;;;5031295;28;20028;-83
2022/04/24 09:41:20;;;;;;;4.07;1.10;;;15.70;99.90;;;;;;5029920;28;20045;-83
2022/04/24 09:43:47;;;;;;;3.03;1.00;;;16.00;99.90;;;;;;5028285;28;20053;-83
2022/04/24 09:46:12;;;;;;;5.25;0.80;;;16.00;99.90;;;;;;5030237;28;20146;-82
2022/04/24 09:48:38;;;;;;;4.00;0.98;;;15.80;99.90;;;;;;5031781;28;20525;-83
2022/04/24 09:51:04;;;;;;;3.30;1.30;;;15.90;99.90;;;;;;5032283;28;20037;-83
2022/04/24 09:53:31;;;;;;;3.80;1.00;;;16.10;99.90;;;;;;5031692;28;20052;-83
2022/04/24 09:55:59;;;;;;;5.85;1.00;;;16.00;99.90;;;;;;5032091;28;20405;-84
2022/04/24 09:58:25;;;;;;;6.30;1.27;;;16.10;99.90;;;;;;5031579;28;20116;-83
2022/04/24 10:00:52;;;;;;;5.70;0.98;;;16.10;99.90;;;;;;5031990;28;20124;-83
2022/04/24 10:03:20;;;;;;;2.67;0.98;;;16.20;99.90;;;;;;5030301;28;20021;-83
2022/04/24 10:05:47;;;;;;;2.15;0.60;;;16.10;99.90;;;;;;5030476;28;20037;-82
2022/04/24 10:08:17;;;;;;;4.47;1.23;;;16.10;99.90;;;;;;5032058;28;20024;-83
2022/04/24 10:10:43;;;;;;;4.55;1.00;;;16.10;99.90;;;;;;5031938;28;20091;-83
2022/04/24 10:13:12;;;;;;;5.70;0.93;;;15.90;99.90;;;;;;5035032;28;20061;-84
2022/04/24 10:15:46;;;;;;;1.48;0.63;;;16.00;99.90;;;;;;5031017;28;20025;-83
2022/04/24 10:18:52;;;;;;;6.45;1.17;;;16.30;99.90;;;;;;5030702;28;20167;-83
2022/04/24 10:21:36;;;;;;;3.70;0.93;;;16.40;99.90;;;;;;5031464;28;20553;-83
2022/04/24 10:24:10;;;;;;;3.47;1.25;;;16.20;99.90;;;;;;5027810;28;20029;-83
2022/04/24 10:26:37;;;;;;;6.20;1.20;;;16.40;99.90;;;;;;5031252;28;20037;-83
2022/04/24 10:29:08;;;;;;;4.70;1.20;;;16.90;99.90;;;;;;5032357;28;20024;-84
2022/04/24 10:31:44;;;;;;;2.92;1.17;;;17.10;99.90;;;;;;5031169;28;20037;-83
2022/04/24 10:34:11;;;;;;;5.30;1.38;;;17.20;99.90;;;;;;5032160;28;20166;-84
2022/04/24 10:36:39;;;;;;;3.70;1.20;;;17.30;99.90;;;;;;5031089;28;20037;-84
2022/04/24 10:39:19;;;;;;;9.40;1.40;;;17.10;99.90;;;;;;5031877;28;20388;-83
2022/04/24 10:41:57;;;;;;;4.55;1.42;;;16.90;99.90;;;;;;5030638;28;20068;-81
2022/04/24 10:44:26;;;;;;;4.57;1.38;;;17.00;99.90;;;;;;5030300;28;20499;-80
2022/04/24 10:46:54;;;;;;;6.47;1.88;;;17.10;99.90;;;;;;5030613;28;20403;-80
2022/04/24 10:49:23;;;;;;;6.25;1.30;;;17.20;99.90;;;;;;5031602;28;20490;-80
2022/04/24 10:52:03;;;;;;;4.50;1.40;;;17.50;99.90;;;;;;5031243;28;20803;-80
2022/04/24 10:54:39;;;;;;;3.53;1.50;;;17.80;99.90;;;;;;5031466;28;20018;-80
2022/04/24 10:57:21;;;;;;;6.53;1.63;;;17.60;99.90;;;;;;5030937;28;20041;-80
2022/04/24 10:59:51;;;;;;;7.75;2.00;;;17.70;99.90;;;;;;5031647;28;20579;-79
2022/04/24 11:02:21;;;;;;;7.00;1.40;;;17.90;99.90;;;;;;5031035;28;20465;-81
2022/04/24 11:05:03;;;;;;;4.25;1.27;;;18.10;99.90;;;;;;5030980;28;20029;-81
2022/04/24 11:07:31;;;;;;;8.15;2.53;;;18.30;99.90;;;;;;5029782;28;20041;-81
2022/04/24 11:10:06;;;;;;;12.10;1.90;;;18.60;99.90;;;;;;5029817;28;20086;-83
2022/04/24 11:12:32;;;;;;;4.57;1.50;;;18.70;99.90;;;;;;5030456;28;20067;-81
2022/04/24 11:15:19;;;;;;;3.83;1.23;;;18.80;99.90;;;;;;5029472;28;20393;-82
2022/04/24 11:17:45;;;;;;;6.53;1.60;;;18.90;99.90;;;;;;5025761;28;20026;-82
2022/04/24 11:20:13;;;;;;;8.10;1.50;;;19.20;99.90;;;;;;5029424;28;20040;-82
2022/04/24 11:22:55;;;;;;;8.43;1.80;;;19.50;99.90;;;;;;5030289;28;20120;-82
2022/04/24 11:25:23;;;;;;;3.30;1.27;;;19.70;99.90;;;;;;5031077;28;20506;-81
2022/04/24 11:27:54;;;;;;;5.00;1.50;;;19.80;99.90;;;;;;5029403;28;20396;-81
2022/04/24 11:30:32;;;;;;;3.80;1.10;;;19.90;99.90;;;;;;5030947;28;20017;-81
2022/04/24 11:33:06;;;;;;;3.78;1.23;;;20.00;99.90;;;;;;5028597;28;20079;-80
2022/04/24 11:35:37;;;;;;;7.95;1.23;;;20.10;99.90;;;;;;5030402;28;20069;-84
2022/04/24 11:38:08;;;;;;;7.15;1.50;;;20.10;99.90;;;;;;5030571;28;20026;-81
2022/04/24 11:40:42;;;;;;;6.70;1.30;;;20.00;99.90;;;;;;5030491;28;20087;-82
2022/04/24 11:43:08;;;;;;;6.72;1.00;;;19.90;99.90;;;;;;5030839;28;20049;-81
2022/04/24 11:51:19;;;;;;;3.50;1.15;;;20.00;99.90;;;;;;5030577;28;20040;-86
2022/04/24 11:53:45;;;;;;;4.88;1.10;;;20.10;99.90;;;;;;5033116;28;20029;-80
2022/04/24 11:56:12;;;;;;;8.35;1.33;;;19.90;99.90;;;;;;5030333;28;20092;-86
2022/04/24 11:58:40;;;;;;;5.25;1.48;;;19.80;99.90;;;;;;5030606;28;20025;-81
2022/04/24 12:01:09;;;;;;;3.35;1.05;;;19.80;99.90;;;;;;5030062;28;20055;-81
2022/04/24 12:03:37;;;;;;;7.35;1.05;;;20.00;99.90;;;;;;5029862;28;20018;-82
2022/04/24 12:06:07;;;;;;;5.38;1.15;;;20.60;99.90;;;;;;5030425;28;20037;-81
2022/04/24 12:08:43;;;;;;;4.22;1.20;;;23.40;99.90;;;;;;5029823;28;20021;-82
2022/04/24 12:11:10;;;;;;;5.93;1.23;;;25.40;98.60;;;;;;5030180;28;20400;-82
2022/04/24 12:13:36;;;;;;;5.75;1.30;;;25.20;96.60;;;;;;5030786;28;20476;-82
2022/04/24 12:16:02;;;;;;;4.25;1.00;;;22.40;97.90;;;;;;5030579;28;20080;-89
2022/04/24 12:18:28;;;;;;;3.50;1.00;;;20.10;97.20;;;;;;5030900;28;20061;-82
2022/04/24 12:20:55;;;;;;;3.47;1.30;;;19.60;99.90;;;;;;5026619;28;20029;-82
2022/04/24 12:23:22;;;;;;;8.20;1.40;;;19.60;99.90;;;;;;5028773;28;20033;-82
2022/04/24 12:25:53;;;;;;;8.90;1.50;;;19.80;99.90;;;;;;5034385;28;20021;-81
2022/04/24 12:28:37;;;;;;;3.10;0.98;;;20.40;99.90;;;;;;5042561;28;20033;-82
2022/04/24 12:31:04;;;;;;;4.72;0.98;;;22.10;99.90;;;;;;5030809;28;20046;-81
2022/04/24 12:33:31;;;;;;;5.05;1.52;;;24.30;98.00;;;;;;5036790;28;20036;-82
2022/04/24 12:36:13;;;;;;;5.13;1.35;;;26.00;94.30;;;;;;5048163;28;20029;-82
2022/04/24 12:38:40;;;;;;;4.03;1.02;;;27.50;92.60;;;;;;5045318;28;20483;-84
2022/04/24 12:41:12;;;;;;;5.13;1.02;;;27.20;88.80;;;;;;5034881;28;20492;-81
2022/04/24 12:43:38;;;;;;;5.18;1.08;;;24.00;91.00;;;;;;5034377;28;20075;-81
2022/04/24 12:46:05;;;;;;;4.78;1.45;;;23.00;93.40;;;;;;5032393;28;20037;-82
2022/04/24 12:48:31;;;;;;;3.28;1.15;;;22.70;96.60;;;;;;5034176;28;20472;-81
2022/04/24 12:50:57;;;;;;;8.77;1.40;;;24.20;93.80;;;;;;5031092;28;20022;-81
2022/04/24 12:53:23;;;;;;;7.97;1.40;;;26.40;93.20;;;;;;5033925;28;20510;-81
2022/04/24 12:55:52;;;;;;;5.85;1.52;;;27.00;92.60;;;;;;5033509;28;20100;-80
2022/04/24 12:58:19;;;;;;;9.70;1.60;;;25.70;92.70;;;;;;5033874;28;20044;-82
2022/04/24 13:00:45;;;;;;;8.95;1.90;;;22.80;96.30;;;;;;5032989;28;20380;-82
2022/04/24 13:03:15;;;;;;;10.80;1.95;;;21.60;99.90;;;;;;5032021;28;20029;-81
2022/04/24 13:05:44;;;;;;;9.73;1.80;;;21.00;99.90;;;;;;5029499;28;20033;-82
2022/04/24 13:08:13;;;;;;;10.48;1.70;;;20.10;99.90;;;;;;5033508;28;20517;-82
2022/04/24 13:10:38;;;;;;;8.43;1.75;;;20.40;99.90;;;;;;5033862;28;20403;-82
2022/04/24 13:13:04;;;;;;;5.85;1.67;;;20.70;99.90;;;;;;5033120;28;20112;-82
2022/04/24 13:15:33;;;;;;;7.45;1.38;;;21.70;99.90;;;;;;5029715;28;20030;-82
2022/04/24 13:18:09;;;;;;;4.93;1.30;;;20.90;99.90;;;;;;5032444;28;20109;-82
2022/04/24 13:20:40;;;;;;;10.63;2.10;;;20.00;99.90;;;;;;5032401;28;20025;-82
2022/04/24 13:23:07;;;;;;;9.02;1.60;;;19.40;99.90;;;;;;5032278;28;20029;-82
2022/04/24 13:25:34;;;;;;;9.73;1.45;;;19.00;99.90;;;;;;5032941;28;20017;-80
2022/04/24 13:28:00;;;;;;;4.82;1.48;;;18.90;99.90;;;;;;5031721;28;20029;-80
2022/04/24 13:30:27;;;;;;;5.32;1.25;;;18.80;99.90;;;;;;5032592;28;20025;-81
2022/04/24 13:32:56;;;;;;;5.90;1.42;;;18.60;99.90;;;;;;5030211;28;20071;-81
2022/04/24 13:35:22;;;;;;;7.25;1.50;;;18.20;99.90;;;;;;5032996;28;20374;-80
2022/04/24 13:40:32;;;;;;;8.23;1.40;;;17.90;99.90;;;;;;5024190;28;20506;-80
2022/04/24 13:42:59;;;;;;;4.68;1.13;;;18.10;99.90;;;;;;5032492;28;20038;-82
2022/04/24 13:45:26;;;;;;;6.85;1.40;;;18.20;99.90;;;;;;5027849;28;20026;-81
2022/04/24 13:47:55;;;;;;;6.13;1.20;;;18.00;99.90;;;;;;5030025;28;20491;-80
2022/04/24 13:50:21;;;;;;;7.40;1.30;;;17.70;99.90;;;;;;5032646;28;20037;-81
2022/04/24 13:52:47;;;;;;;5.55;1.23;;;17.60;99.90;;;;;;5032337;28;20029;-81
2022/04/24 13:55:14;;;;;;;10.07;1.88;;;17.50;99.90;;;;;;5032738;28;20494;-81
2022/04/24 13:57:41;;;;;;;18.88;2.97;;;17.40;99.90;;;;;;5032577;28;20495;-82
2022/04/24 14:00:08;;;;;;;28.67;3.60;;;16.60;99.90;;;;;;5031040;28;20373;-82
2022/04/24 14:02:34;;;;;;;18.33;2.42;;;15.20;99.90;;;;;;5028157;28;20380;-83
2022/04/24 14:05:01;;;;;;;29.77;3.80;;;14.50;99.90;;;;;;5032462;28;20468;-81
2022/04/24 14:07:30;;;;;;;20.00;3.40;;;14.10;99.90;;;;;;5029665;28;20029;-82
2022/04/24 14:09:59;;;;;;;14.68;2.63;;;14.00;99.90;;;;;;5027400;28;20558;-82
2022/04/24 14:12:25;;;;;;;19.23;2.95;;;13.90;99.90;;;;;;5031646;28;20443;-82
2022/04/24 14:14:51;;;;;;;15.75;2.92;;;13.80;99.90;;;;;;5031886;28;20017;-82